createdAt,value
2022-08-21T00:00:28.491Z,2.00
2022-08-21T00:03:30.964Z,2.00
2022-08-21T00:06:34.713Z,2.20
2022-08-21T00:09:37.151Z,2.03
2022-08-21T00:12:39.639Z,1.90
2022-08-21T00:15:42.115Z,2.10
2022-08-21T00:18:44.317Z,2.03
2022-08-21T00:21:46.460Z,2.05
2022-08-21T00:24:48.223Z,2.10
2022-08-21T00:27:50.469Z,2.40
2022-08-21T00:30:52.378Z,2.17
2022-08-21T00:33:59.397Z,1.92
2022-08-21T00:37:02.871Z,2.30
2022-08-21T00:40:07.158Z,2.20
2022-08-21T00:43:11.675Z,2.03
2022-08-21T00:46:13.760Z,2.10
2022-08-21T00:49:15.885Z,2.30
2022-08-21T00:52:23.373Z,2.70
2022-08-21T00:55:25.752Z,2.33
2022-08-21T00:58:32.999Z,2.30
2022-08-21T01:01:35.483Z,2.35
2022-08-21T01:04:37.673Z,2.40
2022-08-21T01:07:40.480Z,2.10
2022-08-21T01:10:42.469Z,2.30
2022-08-21T01:13:47.553Z,2.15
2022-08-21T01:16:52.521Z,2.40
2022-08-21T01:19:58.625Z,2.28
2022-08-21T01:26:04.044Z,2.08
2022-08-21T01:29:17.623Z,2.28
2022-08-21T01:32:21.351Z,2.08
2022-08-21T01:35:23.409Z,2.17
2022-08-21T01:38:26.543Z,2.30
2022-08-21T01:41:29.717Z,2.38
2022-08-21T01:44:31.775Z,2.38
2022-08-21T01:47:33.767Z,2.00
2022-08-21T01:50:35.731Z,2.17
2022-08-21T01:53:38.042Z,2.15
2022-08-21T01:56:46.697Z,2.20
2022-08-21T01:59:48.457Z,2.20
2022-08-21T02:02:51.019Z,2.35
2022-08-21T02:05:52.857Z,1.92
2022-08-21T02:08:54.674Z,2.15
2022-08-21T02:11:56.534Z,2.40
2022-08-21T02:14:59.057Z,2.17
2022-08-21T02:18:05.345Z,2.20
2022-08-21T02:21:07.723Z,2.10
2022-08-21T02:24:10.254Z,2.15
2022-08-21T02:27:12.220Z,2.28
2022-08-21T02:30:19.062Z,2.50
2022-08-21T02:33:20.814Z,2.22
2022-08-21T02:36:22.616Z,2.17
2022-08-21T02:39:27.319Z,2.08
2022-08-21T02:42:29.897Z,1.77
2022-08-21T02:45:32.790Z,1.90
2022-08-21T02:48:35.146Z,2.10
2022-08-21T02:51:37.199Z,2.30
2022-08-21T02:54:38.958Z,2.42
2022-08-21T02:57:40.752Z,2.40
2022-08-21T03:00:45.918Z,1.90
2022-08-21T03:03:50.981Z,2.05
2022-08-21T03:06:52.776Z,2.08
2022-08-21T03:09:55.725Z,2.20
2022-08-21T03:12:58.237Z,2.25
2022-08-21T03:16:00.185Z,2.20
2022-08-21T03:19:02.430Z,2.10
2022-08-21T03:22:04.604Z,2.10
2022-08-21T03:25:07.458Z,1.80
2022-08-21T03:31:16.612Z,1.70
2022-08-21T03:34:18.631Z,2.10
2022-08-21T03:37:20.493Z,2.13
2022-08-21T03:40:26.526Z,1.98
2022-08-21T03:43:30.947Z,2.05
2022-08-21T03:46:34.113Z,2.08
2022-08-21T03:49:36.054Z,2.00
2022-08-21T03:52:37.997Z,2.20
2022-08-21T03:55:40.055Z,2.10
2022-08-21T03:58:42.497Z,2.25
2022-08-21T04:01:59.614Z,2.10
2022-08-21T04:05:01.398Z,2.20
2022-08-21T04:08:05.471Z,1.98
2022-08-21T04:11:07.533Z,1.90
2022-08-21T04:14:09.959Z,2.30
2022-08-21T04:17:11.798Z,2.10
2022-08-21T04:20:13.946Z,2.00
2022-08-21T04:23:23.865Z,2.10
2022-08-21T04:26:27.329Z,2.20
2022-08-21T04:29:29.796Z,2.17
2022-08-21T04:32:31.806Z,2.00
2022-08-21T04:35:34.291Z,2.10
2022-08-21T04:38:37.487Z,2.28
2022-08-21T04:41:39.679Z,1.92
2022-08-21T04:44:42.174Z,2.15
2022-08-21T04:47:52.497Z,2.15
2022-08-21T04:51:30.942Z,2.35
2022-08-21T04:54:32.849Z,2.10
2022-08-21T04:57:48.434Z,2.20
2022-08-21T05:00:54.292Z,2.05
2022-08-21T05:03:59.668Z,1.95
2022-08-21T05:07:07.200Z,2.37
2022-08-21T05:10:09.441Z,2.20
2022-08-21T05:13:13.550Z,2.28
2022-08-21T05:16:16.990Z,2.28
2022-08-21T05:19:38.743Z,2.05
2022-08-21T05:22:41.325Z,2.20
2022-08-21T05:25:44.557Z,1.92
2022-08-21T05:28:47.753Z,2.20
2022-08-21T05:31:49.885Z,2.05
2022-08-21T05:34:52.055Z,2.28
2022-08-21T05:37:54.181Z,2.40
2022-08-21T05:40:56.010Z,2.17
2022-08-21T05:43:57.751Z,2.20
2022-08-21T05:47:10.000Z,2.00
2022-08-21T05:50:12.286Z,2.00
2022-08-21T05:53:15.806Z,2.08
2022-08-21T05:56:17.998Z,2.30
2022-08-21T05:59:20.034Z,2.40
2022-08-21T06:02:22.720Z,2.10
2022-08-21T06:05:36.984Z,2.22
2022-08-21T06:08:40.092Z,2.30
2022-08-21T06:11:41.938Z,2.50
2022-08-21T06:14:43.702Z,2.22
2022-08-21T06:17:45.458Z,2.20
2022-08-21T06:20:47.672Z,2.15
2022-08-21T06:23:49.355Z,2.20
2022-08-21T06:26:51.254Z,2.00
2022-08-21T06:29:52.912Z,2.30
2022-08-21T06:32:54.684Z,2.00
2022-08-21T06:35:56.433Z,1.95
2022-08-21T06:38:58.135Z,2.28
2022-08-21T06:42:00.719Z,2.22
2022-08-21T06:45:04.538Z,2.53
2022-08-21T06:48:08.090Z,2.40
2022-08-21T06:51:10.302Z,2.30
2022-08-21T06:54:11.949Z,2.60
2022-08-21T06:57:13.681Z,2.17
2022-08-21T07:00:15.644Z,2.17
2022-08-21T07:03:23.361Z,2.08
2022-08-21T07:06:26.026Z,2.42
2022-08-21T07:09:27.855Z,2.42
2022-08-21T07:12:29.650Z,2.35
2022-08-21T07:15:31.929Z,2.38
2022-08-21T07:18:33.689Z,2.00
2022-08-21T07:21:35.467Z,2.20
2022-08-21T07:24:37.126Z,2.30
2022-08-21T07:27:39.000Z,2.20
2022-08-21T07:30:40.708Z,2.53
2022-08-21T07:33:42.972Z,2.38
2022-08-21T07:36:44.724Z,2.28
2022-08-21T07:39:49.668Z,1.90
2022-08-21T07:42:52.745Z,2.03
2022-08-21T07:45:55.476Z,2.20
2022-08-21T07:48:57.273Z,2.30
2022-08-21T07:51:59.173Z,2.17
2022-08-21T07:55:05.539Z,2.05
2022-08-21T07:58:08.369Z,2.50
2022-08-21T08:01:10.312Z,2.33
2022-08-21T08:04:12.017Z,2.40
2022-08-21T08:07:13.956Z,2.40
2022-08-21T08:10:17.024Z,2.13
2022-08-21T08:13:18.790Z,2.25
2022-08-21T08:16:20.549Z,2.40
2022-08-21T08:19:22.216Z,2.30
2022-08-21T08:22:25.079Z,2.70
2022-08-21T08:25:28.512Z,2.60
2022-08-21T08:28:38.135Z,2.33
2022-08-21T08:31:40.440Z,2.55
2022-08-21T08:34:42.162Z,2.42
2022-08-21T08:37:45.964Z,2.50
2022-08-21T08:41:11.060Z,2.40
2022-08-21T08:44:12.800Z,2.30
2022-08-21T08:47:18.881Z,2.28
2022-08-21T08:50:58.396Z,2.20
2022-08-21T08:54:05.515Z,2.20
2022-08-21T08:57:15.338Z,2.33
2022-08-21T09:00:21.678Z,2.28
2022-08-21T09:03:25.258Z,2.38
2022-08-21T09:06:58.950Z,2.30
2022-08-21T09:10:44.989Z,2.15
2022-08-21T09:14:09.874Z,2.47
2022-08-21T09:17:45.346Z,2.10
2022-08-21T09:21:05.339Z,2.05
2022-08-21T09:24:54.657Z,2.30
2022-08-21T09:27:56.436Z,2.40
2022-08-21T09:31:03.536Z,2.67
2022-08-21T09:34:11.054Z,2.38
2022-08-21T09:37:19.465Z,2.42
2022-08-21T09:40:47.253Z,2.50
2022-08-21T09:43:54.664Z,2.30
2022-08-21T09:46:56.751Z,2.30
2022-08-21T09:50:11.469Z,2.45
2022-08-21T09:53:32.559Z,2.60
2022-08-21T09:57:14.221Z,2.30
2022-08-21T10:00:32.601Z,2.50
2022-08-21T10:03:34.476Z,2.20
2022-08-21T10:06:36.412Z,2.30
2022-08-21T10:09:38.712Z,2.10
2022-08-21T10:12:50.540Z,2.30
2022-08-21T10:16:11.599Z,2.45
2022-08-21T10:19:31.940Z,2.28
2022-08-21T10:22:44.896Z,2.05
2022-08-21T10:26:13.149Z,2.28
2022-08-21T10:29:41.617Z,2.28
2022-08-21T10:32:54.176Z,2.35
2022-08-21T10:36:01.949Z,2.03
2022-08-21T10:39:35.757Z,2.17
2022-08-21T10:43:02.919Z,2.10
2022-08-21T10:46:22.884Z,2.10
2022-08-21T10:49:39.783Z,2.00
2022-08-21T10:53:18.193Z,2.20
2022-08-21T10:56:27.828Z,1.70
2022-08-21T10:59:38.553Z,1.70
2022-08-21T11:02:52.795Z,1.83
2022-08-21T11:06:00.520Z,1.73
2022-08-21T11:09:15.946Z,1.80
2022-08-21T11:12:25.682Z,2.00
2022-08-21T11:15:44.945Z,1.90
2022-08-21T11:18:54.648Z,1.98
2022-08-21T11:22:11.179Z,2.00
2022-08-21T11:25:36.919Z,1.98
2022-08-21T11:32:24.764Z,1.90
2022-08-21T11:35:51.757Z,1.83
2022-08-21T11:39:23.250Z,1.90
2022-08-21T11:42:33.832Z,1.75
2022-08-21T11:45:57.029Z,1.83
2022-08-21T11:49:17.711Z,1.67
2022-08-21T11:52:26.350Z,1.83
2022-08-21T11:55:37.122Z,1.80
2022-08-21T11:58:58.570Z,1.80
2022-08-21T12:02:01.505Z,1.80
2022-08-21T12:05:10.710Z,1.90
2022-08-21T12:08:15.567Z,1.70
2022-08-21T12:11:17.212Z,1.70
2022-08-21T12:14:20.294Z,1.90
2022-08-21T12:17:25.551Z,1.90
2022-08-21T12:23:49.104Z,1.75
2022-08-21T12:26:57.317Z,1.73
2022-08-21T12:30:19.515Z,1.65
2022-08-21T12:33:27.061Z,1.60
2022-08-21T12:36:55.371Z,1.70
2022-08-21T12:40:01.713Z,1.90
2022-08-21T12:43:05.666Z,1.83
2022-08-21T12:46:15.966Z,1.65
2022-08-21T12:49:29.891Z,1.90
2022-08-21T12:52:39.492Z,1.80
2022-08-21T12:55:44.189Z,1.73
2022-08-21T12:58:49.612Z,1.60
2022-08-21T13:01:53.743Z,1.60
2022-08-21T13:04:57.767Z,1.60
2022-08-21T13:08:03.979Z,1.80
2022-08-21T13:11:13.352Z,1.60
2022-08-21T13:14:45.377Z,1.80
2022-08-21T13:17:51.662Z,1.60
2022-08-21T13:21:03.226Z,1.70
2022-08-21T13:24:32.014Z,1.50
2022-08-21T13:27:33.333Z,1.40
2022-08-21T13:30:35.991Z,1.70
2022-08-21T13:33:41.582Z,1.55
2022-08-21T13:36:44.545Z,1.50
2022-08-21T13:39:52.400Z,1.50
2022-08-21T13:42:55.108Z,1.52
2022-08-21T13:45:58.216Z,1.40
2022-08-21T13:49:01.950Z,1.48
2022-08-21T13:52:05.213Z,1.40
2022-08-21T13:55:14.323Z,1.30
2022-08-21T13:58:26.678Z,1.42
2022-08-21T14:01:37.324Z,1.40
2022-08-21T14:04:53.404Z,1.42
2022-08-21T14:08:20.612Z,1.30
2022-08-21T14:11:23.049Z,1.20
2022-08-21T14:14:29.266Z,1.40
2022-08-21T14:17:42.695Z,1.40
2022-08-21T14:20:46.058Z,1.50
2022-08-21T14:23:47.810Z,1.20
2022-08-21T14:27:08.004Z,1.38
2022-08-21T14:30:21.751Z,1.38
2022-08-21T14:33:31.446Z,1.40
2022-08-21T14:36:33.182Z,1.30
2022-08-21T14:39:34.918Z,1.25
2022-08-21T14:42:36.707Z,1.20
2022-08-21T14:45:41.781Z,1.23
2022-08-21T14:48:43.869Z,1.17
2022-08-21T14:51:54.312Z,1.20
2022-08-21T14:54:56.361Z,1.20
2022-08-21T14:57:58.274Z,1.10
2022-08-21T15:01:04.410Z,1.23
2022-08-21T15:04:06.133Z,1.20
2022-08-21T15:07:07.837Z,1.10
2022-08-21T15:10:10.285Z,1.20
2022-08-21T15:13:12.612Z,1.40
2022-08-21T15:16:14.745Z,1.10
2022-08-21T15:19:16.451Z,1.10
2022-08-21T15:22:19.092Z,1.05
2022-08-21T15:25:29.845Z,1.20
2022-08-21T15:28:32.022Z,1.20
2022-08-21T15:31:34.403Z,1.05
2022-08-21T15:34:36.082Z,1.10
2022-08-21T15:37:37.886Z,1.17
2022-08-21T15:40:51.486Z,1.00
2022-08-21T15:43:54.350Z,1.30
2022-08-21T15:46:57.544Z,1.10
2022-08-21T15:49:59.511Z,1.20
2022-08-21T15:53:01.256Z,1.10
2022-08-21T15:56:03.879Z,1.20
2022-08-21T15:59:13.178Z,1.30
2022-08-21T16:02:20.054Z,1.20
2022-08-21T16:05:22.282Z,1.00
2022-08-21T16:08:25.598Z,1.23
2022-08-21T16:11:28.332Z,1.20
2022-08-21T16:14:31.453Z,1.20
2022-08-21T16:17:35.838Z,1.20
2022-08-21T16:20:37.617Z,1.23
2022-08-21T16:23:40.460Z,1.30
2022-08-21T16:26:42.233Z,1.05
2022-08-21T16:29:46.473Z,1.10
2022-08-21T16:32:49.335Z,1.10
2022-08-21T16:35:51.872Z,1.20
2022-08-21T16:38:57.682Z,1.10
2022-08-21T16:41:59.577Z,1.10
2022-08-21T16:45:03.347Z,1.08
2022-08-21T16:48:09.816Z,1.10
2022-08-21T16:51:13.999Z,1.10
2022-08-21T16:54:15.722Z,1.10
2022-08-21T16:57:17.968Z,1.20
2022-08-21T17:00:20.124Z,1.17
2022-08-21T17:03:28.936Z,1.00
2022-08-21T17:06:31.331Z,1.30
2022-08-21T17:09:32.975Z,1.20
2022-08-21T17:12:35.059Z,1.50
2022-08-21T17:15:38.907Z,1.35
2022-08-21T17:18:40.691Z,1.20
2022-08-21T17:21:42.760Z,1.60
2022-08-21T17:24:47.747Z,1.20
2022-08-21T17:27:51.682Z,1.30
2022-08-21T17:30:57.584Z,1.15
2022-08-21T17:33:59.260Z,1.23
2022-08-21T17:37:01.107Z,1.20
2022-08-21T17:40:06.580Z,1.17
2022-08-21T17:43:11.099Z,1.13
2022-08-21T17:46:19.095Z,1.30
2022-08-21T17:49:20.761Z,1.15
2022-08-21T17:52:23.642Z,1.20
2022-08-21T17:55:28.113Z,1.20
2022-08-21T17:58:29.988Z,1.10
2022-08-21T18:01:35.991Z,1.10
2022-08-21T18:04:37.738Z,1.00
2022-08-21T18:07:39.509Z,1.00
2022-08-21T18:10:44.331Z,1.10
2022-08-21T18:13:46.266Z,1.30
2022-08-21T18:16:48.024Z,1.27
2022-08-21T18:19:49.931Z,1.20
2022-08-21T18:22:51.949Z,1.40
2022-08-21T18:25:57.336Z,1.23
2022-08-21T18:29:01.256Z,1.30
2022-08-21T18:32:03.120Z,1.40
2022-08-21T18:35:07.245Z,1.40
2022-08-21T18:38:13.347Z,1.55
2022-08-21T18:41:15.198Z,1.35
2022-08-21T18:44:19.453Z,1.40
2022-08-21T18:47:26.350Z,1.30
2022-08-21T18:50:29.219Z,1.50
2022-08-21T18:53:31.147Z,1.30
2022-08-21T18:56:36.897Z,1.48
2022-08-21T18:59:42.100Z,1.58
2022-08-21T19:02:45.083Z,1.45
2022-08-21T19:05:48.254Z,1.48
2022-08-21T19:08:50.233Z,1.60
2022-08-21T19:11:52.321Z,1.63
2022-08-21T19:14:54.609Z,1.48
2022-08-21T19:17:57.198Z,1.55
2022-08-21T19:20:58.908Z,1.50
2022-08-21T19:24:00.605Z,1.48
2022-08-21T19:27:18.977Z,1.60
2022-08-21T19:30:20.995Z,1.60
2022-08-21T19:33:29.546Z,1.70
2022-08-21T19:36:32.525Z,1.70
2022-08-21T19:39:41.370Z,1.70
2022-08-21T19:42:47.343Z,1.52
2022-08-21T19:45:50.740Z,1.70
2022-08-21T19:48:55.329Z,1.80
2022-08-21T19:51:57.154Z,1.58
2022-08-21T19:54:58.918Z,1.60
2022-08-21T19:58:26.346Z,1.70
2022-08-21T20:01:28.222Z,1.85
2022-08-21T20:04:30.046Z,2.05
2022-08-21T20:07:32.125Z,1.67
2022-08-21T20:10:33.917Z,1.70
2022-08-21T20:13:36.110Z,1.85
2022-08-21T20:16:38.973Z,1.88
2022-08-21T20:19:45.149Z,1.90
2022-08-21T20:22:46.864Z,1.80
2022-08-21T20:25:51.201Z,1.80
2022-08-21T20:28:53.558Z,1.80
2022-08-21T20:31:57.553Z,1.70
2022-08-21T20:34:59.534Z,1.77
2022-08-21T20:38:02.107Z,1.70
2022-08-21T20:41:04.946Z,1.90
2022-08-21T20:44:18.099Z,1.80
2022-08-21T20:47:20.991Z,2.00
2022-08-21T20:50:26.820Z,2.00
2022-08-21T20:53:42.864Z,1.90
2022-08-21T20:57:21.901Z,1.75
2022-08-21T21:00:26.979Z,2.00
2022-08-21T21:03:43.250Z,1.90
2022-08-21T21:06:45.270Z,1.75
2022-08-21T21:09:55.488Z,2.00
2022-08-21T21:13:03.404Z,1.98
2022-08-21T21:16:15.312Z,2.08
2022-08-21T21:19:42.527Z,2.00
2022-08-21T21:22:51.096Z,2.00
2022-08-21T21:26:29.330Z,1.85
2022-08-21T21:29:40.041Z,2.10
2022-08-21T21:32:43.270Z,2.08
2022-08-21T21:36:02.762Z,1.90
2022-08-21T21:39:27.583Z,1.95
2022-08-21T21:42:56.772Z,1.83
2022-08-21T21:46:26.952Z,1.92
2022-08-21T21:49:50.216Z,1.90
2022-08-21T21:53:12.285Z,2.10
2022-08-21T21:56:22.688Z,2.00
2022-08-21T21:59:41.272Z,1.88
2022-08-21T22:03:04.631Z,2.08
2022-08-21T22:06:35.570Z,1.85
2022-08-21T22:09:37.176Z,1.85
2022-08-21T22:12:58.431Z,1.88
2022-08-21T22:16:11.779Z,1.98
2022-08-21T22:19:23.036Z,2.00
2022-08-21T22:22:28.585Z,1.88
2022-08-21T22:25:36.442Z,2.05
2022-08-21T22:28:42.021Z,1.90
2022-08-21T22:31:59.481Z,2.05
2022-08-21T22:35:21.538Z,2.05
2022-08-21T22:38:26.143Z,2.03
2022-08-21T22:41:31.088Z,1.98
2022-08-21T22:44:32.788Z,2.13
2022-08-21T22:47:39.314Z,2.00
2022-08-21T22:50:46.028Z,2.05
2022-08-21T22:53:54.618Z,2.20
2022-08-21T22:57:00.581Z,2.20
2022-08-21T23:03:04.059Z,1.90
2022-08-21T23:06:42.967Z,2.10
2022-08-21T23:09:53.213Z,1.92
2022-08-21T23:17:01.099Z,2.00
2022-08-21T23:20:42.785Z,1.83
2022-08-21T23:24:03.325Z,2.00
2022-08-21T23:27:11.333Z,2.10
2022-08-21T23:30:32.884Z,2.05
2022-08-21T23:34:01.053Z,1.95
2022-08-21T23:37:48.737Z,1.88
2022-08-21T23:40:58.596Z,2.30
2022-08-21T23:44:08.381Z,2.00
2022-08-21T23:47:30.254Z,2.03
2022-08-21T23:50:51.398Z,2.17
2022-08-21T23:54:02.206Z,2.15
